PWSweather.com
Personal Weather Stations
Station Observations
133525
French Quarters West Seneca , West Seneca, NY 14224

French Quarters West Seneca West Seneca, NY 14224

Lat: 42.850058, Lon: -78.799754

Elevation: 603

Station Type: Davis Vantage Vue pro2

http://westsenecaweather.com/

High Low Average
Temperature 78.7°F25.9°F 58.9°F14.9°F 69.2°F20.7°F
Dew Point 68.3°F20.2°F 56.6°F13.7°F 62.0°F16.7°F
Winds 8.1 mph NNW13.0 mph NNW Calm Calm 1.8 mph 2.9 mph
Wind Gusts 16.1 mph25.9 mph -- 3.6 mph5.8 mph
Humidity 95% 58% 79%
Pressure 30.09 in1019.00 in 29.94 in1013.90 in -
Precipitation 0.00 in0.00 in - -
Hour Temp Dew Point Humidity Winds Wind Gusts Pressure Precip Precip Rate Daily Precip Total
12:00 AM 65.7°F18.7°C 57.9°F14.4°C 76% 2.3 mph E3.7 kmh E 2.3 mph3.7 kmh 29.94 in1013.9 mb - 0.00 in0.0 mm 0.00 in0.0 mm
12:10 AM 65.5°F18.6°C 57.7°F14.3°C 76% Calm Calm 1.2 mph1.9 kmh 29.94 in1013.9 mb - 0.00 in0.0 mm 0.00 in0.0 mm
12:20 AM 65.0°F18.3°C 58.0°F14.4°C 78% 1.2 mph ENE1.9 kmh ENE 3.5 mph5.6 kmh 29.95 in1014.2 mb - 0.00 in0.0 mm 0.00 in0.0 mm
12:30 AM 64.7°F18.2°C 57.7°F14.3°C 78% 1.2 mph ENE1.9 kmh ENE 2.3 mph3.7 kmh 29.94 in1013.9 mb - 0.00 in0.0 mm 0.00 in0.0 mm
12:40 AM 64.4°F18.0°C 58.1°F14.5°C 80% Calm Calm -- 29.94 in1013.9 mb - 0.00 in0.0 mm 0.00 in0.0 mm
12:50 AM 63.8°F17.7°C 57.9°F14.4°C 81% Calm Calm -- 29.94 in1013.9 mb - 0.00 in0.0 mm 0.00 in0.0 mm
01:00 AM 63.4°F17.4°C 57.4°F14.1°C 81% Calm Calm -- 29.95 in1014.2 mb - 0.00 in0.0 mm 0.00 in0.0 mm
01:10 AM 63.1°F17.3°C 57.5°F14.2°C 82% Calm Calm -- 29.95 in1014.2 mb - 0.00 in0.0 mm 0.00 in0.0 mm
01:20 AM 62.8°F17.1°C 57.6°F14.2°C 83% Calm Calm -- 29.96 in1014.6 mb - 0.00 in0.0 mm 0.00 in0.0 mm
01:30 AM 62.6°F17.0°C 57.4°F14.1°C 83% Calm Calm -- 29.96 in1014.6 mb - 0.00 in0.0 mm 0.00 in0.0 mm
01:40 AM 62.6°F17.0°C 57.4°F14.1°C 83% Calm Calm -- 29.96 in1014.6 mb - 0.00 in0.0 mm 0.00 in0.0 mm
01:50 AM 62.2°F16.8°C 57.3°F14.1°C 84% Calm Calm -- 29.96 in1014.6 mb - 0.00 in0.0 mm 0.00 in0.0 mm
02:00 AM 61.8°F16.6°C 57.6°F14.2°C 86% Calm Calm -- 29.96 in1014.6 mb - 0.00 in0.0 mm 0.00 in0.0 mm
02:10 AM 61.5°F16.4°C 57.2°F14.0°C 86% Calm Calm -- 29.96 in1014.6 mb - 0.00 in0.0 mm 0.00 in0.0 mm
02:20 AM 61.2°F16.2°C 57.3°F14.1°C 87% Calm Calm -- 29.97 in1014.9 mb - 0.00 in0.0 mm 0.00 in0.0 mm
02:30 AM 60.8°F16.0°C 57.3°F14.1°C 88% Calm Calm -- 29.97 in1014.9 mb - 0.00 in0.0 mm 0.00 in0.0 mm
02:40 AM 60.5°F15.8°C 56.9°F13.8°C 88% Calm Calm -- 29.97 in1014.9 mb - 0.00 in0.0 mm 0.00 in0.0 mm
02:50 AM 60.1°F15.6°C 56.8°F13.8°C 89% Calm Calm -- 29.97 in1014.9 mb - 0.00 in0.0 mm 0.00 in0.0 mm
03:00 AM 59.9°F15.5°C 56.9°F13.8°C 90% Calm Calm -- 29.97 in1014.9 mb - 0.00 in0.0 mm 0.00 in0.0 mm
03:10 AM 59.6°F15.3°C 56.7°F13.7°C 90% Calm Calm -- 29.98 in1015.2 mb - 0.00 in0.0 mm 0.00 in0.0 mm
03:20 AM 59.5°F15.3°C 56.9°F13.8°C 91% Calm Calm -- 29.98 in1015.2 mb - 0.00 in0.0 mm 0.00 in0.0 mm
03:30 AM 59.3°F15.2°C 56.7°F13.7°C 91% Calm Calm -- 29.98 in1015.2 mb - 0.00 in0.0 mm 0.00 in0.0 mm
03:40 AM 59.1°F15.1°C 56.8°F13.8°C 92% Calm Calm -- 29.98 in1015.2 mb - 0.00 in0.0 mm 0.00 in0.0 mm
03:50 AM 59.1°F15.1°C 56.8°F13.8°C 92% Calm Calm -- 29.98 in1015.2 mb - 0.00 in0.0 mm 0.00 in0.0 mm
04:00 AM 59.0°F15.0°C 56.7°F13.7°C 92% Calm Calm -- 29.98 in1015.2 mb - 0.00 in0.0 mm 0.00 in0.0 mm
04:10 AM 58.9°F14.9°C 56.6°F13.7°C 92% Calm Calm -- 29.98 in1015.2 mb - 0.00 in0.0 mm 0.00 in0.0 mm
04:20 AM 58.9°F14.9°C 56.9°F13.8°C 93% Calm Calm -- 29.98 in1015.2 mb - 0.00 in0.0 mm 0.00 in0.0 mm
04:30 AM 59.2°F15.1°C 57.4°F14.1°C 94% Calm Calm -- 29.98 in1015.2 mb - 0.00 in0.0 mm 0.00 in0.0 mm
04:40 AM 59.3°F15.2°C 57.6°F14.2°C 94% Calm Calm -- 29.98 in1015.2 mb - 0.00 in0.0 mm 0.00 in0.0 mm
04:50 AM 59.3°F15.2°C 57.6°F14.2°C 94% Calm Calm -- 29.99 in1015.6 mb - 0.00 in0.0 mm 0.00 in0.0 mm
05:00 AM 59.2°F15.1°C 57.5°F14.2°C 94% Calm Calm -- 29.99 in1015.6 mb - 0.00 in0.0 mm 0.00 in0.0 mm
05:10 AM 59.2°F15.1°C 57.5°F14.2°C 94% Calm Calm -- 29.99 in1015.6 mb - 0.00 in0.0 mm 0.00 in0.0 mm
05:20 AM 59.2°F15.1°C 57.4°F14.1°C 94% Calm Calm -- 30.00 in1015.9 mb - 0.00 in0.0 mm 0.00 in0.0 mm
05:30 AM 59.0°F15.0°C 57.3°F14.1°C 94% Calm Calm -- 30.00 in1015.9 mb - 0.00 in0.0 mm 0.00 in0.0 mm
05:40 AM 59.0°F15.0°C 57.3°F14.1°C 94% Calm Calm -- 30.00 in1015.9 mb - 0.00 in0.0 mm 0.00 in0.0 mm
05:50 AM 59.0°F15.0°C 57.3°F14.1°C 94% Calm Calm -- 30.00 in1015.9 mb - 0.00 in0.0 mm 0.00 in0.0 mm
06:00 AM 59.0°F15.0°C 57.6°F14.2°C 95% Calm Calm -- 30.01 in1016.3 mb - 0.00 in0.0 mm 0.00 in0.0 mm
06:10 AM 59.1°F15.1°C 57.7°F14.3°C 95% Calm Calm -- 30.01 in1016.3 mb - 0.00 in0.0 mm 0.00 in0.0 mm
06:20 AM 59.5°F15.3°C 58.1°F14.5°C 95% Calm Calm -- 30.01 in1016.3 mb - 0.00 in0.0 mm 0.00 in0.0 mm
06:30 AM 60.0°F15.6°C 58.6°F14.8°C 95% Calm Calm -- 30.02 in1016.6 mb - 0.00 in0.0 mm 0.00 in0.0 mm
06:40 AM 60.3°F15.7°C 58.9°F14.9°C 95% Calm Calm -- 30.02 in1016.6 mb - 0.00 in0.0 mm 0.00 in0.0 mm
06:50 AM 60.7°F15.9°C 59.2°F15.1°C 95% Calm Calm -- 30.03 in1016.9 mb - 0.00 in0.0 mm 0.00 in0.0 mm
07:00 AM 61.0°F16.1°C 59.6°F15.3°C 95% Calm Calm -- 30.03 in1016.9 mb - 0.00 in0.0 mm 0.00 in0.0 mm
07:10 AM 61.5°F16.4°C 59.7°F15.4°C 94% Calm Calm -- 30.03 in1016.9 mb - 0.00 in0.0 mm 0.00 in0.0 mm
07:20 AM 61.8°F16.6°C 59.8°F15.4°C 93% Calm Calm -- 30.03 in1016.9 mb - 0.00 in0.0 mm 0.00 in0.0 mm
07:30 AM 62.2°F16.8°C 60.1°F15.6°C 93% Calm Calm -- 30.03 in1016.9 mb - 0.00 in0.0 mm 0.00 in0.0 mm
07:40 AM 62.8°F17.1°C 60.4°F15.8°C 92% Calm Calm 1.2 mph1.9 kmh 30.03 in1016.9 mb - 0.00 in0.0 mm 0.00 in0.0 mm
07:50 AM 63.7°F17.6°C 60.4°F15.8°C 89% Calm Calm -- 30.03 in1016.9 mb - 0.00 in0.0 mm 0.00 in0.0 mm
08:00 AM 64.3°F17.9°C 60.4°F15.8°C 87% Calm Calm -- 30.04 in1017.3 mb - 0.00 in0.0 mm 0.00 in0.0 mm
08:10 AM 65.1°F18.4°C 60.8°F16.0°C 86% Calm Calm -- 30.04 in1017.3 mb - 0.00 in0.0 mm 0.00 in0.0 mm
08:20 AM 65.9°F18.8°C 61.3°F16.3°C 85% Calm Calm -- 30.04 in1017.3 mb - 0.00 in0.0 mm 0.00 in0.0 mm
08:30 AM 66.7°F19.3°C 61.3°F16.3°C 83% Calm Calm -- 30.04 in1017.3 mb - 0.00 in0.0 mm 0.00 in0.0 mm
08:40 AM 67.6°F19.8°C 62.0°F16.7°C 82% 2.3 mph NW3.7 kmh NW 3.5 mph5.6 kmh 30.04 in1017.3 mb - 0.00 in0.0 mm 0.00 in0.0 mm
08:50 AM 68.5°F20.3°C 62.1°F16.7°C 80% 3.5 mph NNW5.6 kmh NNW 5.8 mph9.3 kmh 30.04 in1017.3 mb - 0.00 in0.0 mm 0.00 in0.0 mm
09:00 AM 69.4°F20.8°C 62.9°F17.2°C 80% 2.3 mph NNW3.7 kmh NNW 3.5 mph5.6 kmh 30.04 in1017.3 mb - 0.00 in0.0 mm 0.00 in0.0 mm
09:10 AM 70.2°F21.2°C 63.4°F17.4°C 79% 3.5 mph NW5.6 kmh NW 3.5 mph5.6 kmh 30.04 in1017.3 mb - 0.00 in0.0 mm 0.00 in0.0 mm
09:20 AM 70.8°F21.6°C 63.2°F17.3°C 77% 3.5 mph NNW5.6 kmh NNW 4.6 mph7.4 kmh 30.04 in1017.3 mb - 0.00 in0.0 mm 0.00 in0.0 mm
09:30 AM 71.7°F22.1°C 64.1°F17.8°C 77% 2.3 mph NNW3.7 kmh NNW 4.6 mph7.4 kmh 30.04 in1017.3 mb - 0.00 in0.0 mm 0.00 in0.0 mm
09:50 AM 72.8°F22.7°C 65.2°F18.4°C 77% 3.5 mph NNW5.6 kmh NNW 6.9 mph11.1 kmh 30.04 in1017.3 mb - 0.00 in0.0 mm 0.00 in0.0 mm
10:00 AM 73.0°F22.8°C 65.4°F18.6°C 77% 4.6 mph NNE7.4 kmh NNE 10.4 mph16.7 kmh 30.05 in1017.6 mb - 0.00 in0.0 mm 0.00 in0.0 mm
10:10 AM 73.2°F22.9°C 65.6°F18.7°C 77% 2.3 mph NNW3.7 kmh NNW 3.5 mph5.6 kmh 30.05 in1017.6 mb - 0.00 in0.0 mm 0.00 in0.0 mm
10:20 AM 73.7°F23.2°C 66.0°F18.9°C 77% 2.3 mph N3.7 kmh N 8.1 mph13.0 kmh 30.05 in1017.6 mb - 0.00 in0.0 mm 0.00 in0.0 mm
10:30 AM 74.1°F23.4°C 65.7°F18.7°C 75% 4.6 mph N7.4 kmh N 11.5 mph18.5 kmh 30.05 in1017.6 mb - 0.00 in0.0 mm 0.00 in0.0 mm
10:40 AM 74.2°F23.4°C 66.1°F18.9°C 76% 4.6 mph N7.4 kmh N 8.1 mph13.0 kmh 30.06 in1017.9 mb - 0.00 in0.0 mm 0.00 in0.0 mm
10:50 AM 74.4°F23.6°C 66.7°F19.3°C 77% 4.6 mph NNW7.4 kmh NNW 11.5 mph18.5 kmh 30.06 in1017.9 mb - 0.00 in0.0 mm 0.00 in0.0 mm
11:00 AM 74.4°F23.6°C 67.1°F19.5°C 78% 4.6 mph N7.4 kmh N 9.2 mph14.8 kmh 30.06 in1017.9 mb - 0.00 in0.0 mm 0.00 in0.0 mm
11:10 AM 74.3°F23.5°C 67.4°F19.7°C 79% 4.6 mph NE7.4 kmh NE 8.1 mph13.0 kmh 30.07 in1018.3 mb - 0.00 in0.0 mm 0.00 in0.0 mm
11:20 AM 74.8°F23.8°C 68.2°F20.1°C 80% 2.3 mph NNE3.7 kmh NNE 12.7 mph20.4 kmh 30.07 in1018.3 mb - 0.00 in0.0 mm 0.00 in0.0 mm
11:30 AM 74.7°F23.7°C 67.8°F19.9°C 79% 8.1 mph NNW13.0 kmh NNW 12.7 mph20.4 kmh 30.08 in1018.6 mb - 0.00 in0.0 mm 0.00 in0.0 mm
11:40 AM 74.8°F23.8°C 67.8°F19.9°C 79% 5.8 mph NNE9.3 kmh NNE 11.5 mph18.5 kmh 30.08 in1018.6 mb - 0.00 in0.0 mm 0.00 in0.0 mm
11:50 AM 74.5°F23.6°C 68.3°F20.2°C 81% 3.5 mph ENE5.6 kmh ENE 6.9 mph11.1 kmh 30.08 in1018.6 mb - 0.00 in0.0 mm 0.00 in0.0 mm
12:00 PM 75.2°F24.0°C 67.9°F19.9°C 78% 4.6 mph NNE7.4 kmh NNE 6.9 mph11.1 kmh 30.07 in1018.3 mb - 0.00 in0.0 mm 0.00 in0.0 mm
12:10 PM 74.8°F23.8°C 68.2°F20.1°C 80% 4.6 mph NW7.4 kmh NW 4.6 mph7.4 kmh 30.08 in1018.6 mb - 0.00 in0.0 mm 0.00 in0.0 mm
12:20 PM 75.0°F23.9°C 67.7°F19.8°C 78% 4.6 mph NNW7.4 kmh NNW 9.2 mph14.8 kmh 30.07 in1018.3 mb - 0.00 in0.0 mm 0.00 in0.0 mm
12:30 PM 75.1°F23.9°C 67.8°F19.9°C 78% 4.6 mph NW7.4 kmh NW 9.2 mph14.8 kmh 30.07 in1018.3 mb - 0.00 in0.0 mm 0.00 in0.0 mm
12:40 PM 75.5°F24.2°C 68.2°F20.1°C 78% 5.8 mph NNW9.3 kmh NNW 10.4 mph16.7 kmh 30.07 in1018.3 mb - 0.00 in0.0 mm 0.00 in0.0 mm
12:50 PM 75.9°F24.4°C 68.2°F20.1°C 77% 4.6 mph N7.4 kmh N 8.1 mph13.0 kmh 30.06 in1017.9 mb - 0.00 in0.0 mm 0.00 in0.0 mm
01:00 PM 76.1°F24.5°C 68.0°F20.0°C 76% 3.5 mph N5.6 kmh N 4.6 mph7.4 kmh 30.07 in1018.3 mb - 0.00 in0.0 mm 0.00 in0.0 mm
01:10 PM 76.4°F24.7°C 67.5°F19.7°C 74% 5.8 mph NE9.3 kmh NE 10.4 mph16.7 kmh 30.07 in1018.3 mb - 0.00 in0.0 mm 0.00 in0.0 mm
01:20 PM 76.9°F24.9°C 68.0°F20.0°C 74% 4.6 mph N7.4 kmh N 8.1 mph13.0 kmh 30.07 in1018.3 mb - 0.00 in0.0 mm 0.00 in0.0 mm
01:30 PM 76.4°F24.7°C 68.2°F20.1°C 76% 4.6 mph NE7.4 kmh NE 10.4 mph16.7 kmh 30.07 in1018.3 mb - 0.00 in0.0 mm 0.00 in0.0 mm
01:40 PM 76.0°F24.4°C 67.9°F19.9°C 76% 5.8 mph ENE9.3 kmh ENE 13.8 mph22.2 kmh 30.08 in1018.6 mb - 0.00 in0.0 mm 0.00 in0.0 mm
01:50 PM 76.2°F24.6°C 68.0°F20.0°C 76% 3.5 mph NNE5.6 kmh NNE 6.9 mph11.1 kmh 30.08 in1018.6 mb - 0.00 in0.0 mm 0.00 in0.0 mm
02:00 PM 76.6°F24.8°C 67.7°F19.8°C 74% 5.8 mph NW9.3 kmh NW 10.4 mph16.7 kmh 30.08 in1018.6 mb - 0.00 in0.0 mm 0.00 in0.0 mm
02:10 PM 77.1°F25.1°C 67.3°F19.6°C 72% 5.8 mph NNE9.3 kmh NNE 4.6 mph7.4 kmh 30.08 in1018.6 mb - 0.00 in0.0 mm 0.00 in0.0 mm
02:20 PM 77.3°F25.2°C 66.7°F19.3°C 70% 5.8 mph N9.3 kmh N 8.1 mph13.0 kmh 30.08 in1018.6 mb - 0.00 in0.0 mm 0.00 in0.0 mm
02:30 PM 77.3°F25.2°C 67.2°F19.6°C 71% 4.6 mph NNW7.4 kmh NNW 9.2 mph14.8 kmh 30.08 in1018.6 mb - 0.00 in0.0 mm 0.00 in0.0 mm
02:40 PM 77.5°F25.3°C 65.7°F18.7°C 67% 6.9 mph NE11.1 kmh NE 12.7 mph20.4 kmh 30.07 in1018.3 mb - 0.00 in0.0 mm 0.00 in0.0 mm
02:50 PM 77.8°F25.4°C 65.9°F18.8°C 67% 3.5 mph NNW5.6 kmh NNW 10.4 mph16.7 kmh 30.07 in1018.3 mb - 0.00 in0.0 mm 0.00 in0.0 mm
03:00 PM 78.2°F25.7°C 65.5°F18.6°C 65% 5.8 mph NE9.3 kmh NE 16.1 mph25.9 kmh 30.07 in1018.3 mb - 0.00 in0.0 mm 0.00 in0.0 mm
03:10 PM 78.4°F25.8°C 64.8°F18.2°C 63% 5.8 mph NNE9.3 kmh NNE 16.1 mph25.9 kmh 30.07 in1018.3 mb - 0.00 in0.0 mm 0.00 in0.0 mm
03:20 PM 77.8°F25.4°C 64.6°F18.1°C 64% 4.6 mph N7.4 kmh N 4.6 mph7.4 kmh 30.07 in1018.3 mb - 0.00 in0.0 mm 0.00 in0.0 mm
03:30 PM 78.1°F25.6°C 63.6°F17.6°C 61% 4.6 mph N7.4 kmh N 9.2 mph14.8 kmh 30.07 in1018.3 mb - 0.00 in0.0 mm 0.00 in0.0 mm
03:40 PM 78.5°F25.8°C 64.8°F18.2°C 63% 3.5 mph N5.6 kmh N 4.6 mph7.4 kmh 30.07 in1018.3 mb - 0.00 in0.0 mm 0.00 in0.0 mm
03:50 PM 78.7°F25.9°C 64.6°F18.1°C 62% 4.6 mph N7.4 kmh N 6.9 mph11.1 kmh 30.07 in1018.3 mb - 0.00 in0.0 mm 0.00 in0.0 mm
04:00 PM 78.2°F25.7°C 64.1°F17.8°C 62% 4.6 mph NE7.4 kmh NE 10.4 mph16.7 kmh 30.07 in1018.3 mb - 0.00 in0.0 mm 0.00 in0.0 mm
04:10 PM 78.0°F25.6°C 64.0°F17.8°C 62% 3.5 mph N5.6 kmh N 8.1 mph13.0 kmh 30.06 in1017.9 mb - 0.00 in0.0 mm 0.00 in0.0 mm
04:20 PM 78.0°F25.6°C 63.5°F17.5°C 61% 5.8 mph NNE9.3 kmh NNE 10.4 mph16.7 kmh 30.06 in1017.9 mb - 0.00 in0.0 mm 0.00 in0.0 mm
04:30 PM 78.0°F25.6°C 63.5°F17.5°C 61% 3.5 mph ENE5.6 kmh ENE 5.8 mph9.3 kmh 30.06 in1017.9 mb - 0.00 in0.0 mm 0.00 in0.0 mm
04:40 PM 78.2°F25.7°C 62.7°F17.1°C 59% 3.5 mph NNE5.6 kmh NNE 6.9 mph11.1 kmh 30.06 in1017.9 mb - 0.00 in0.0 mm 0.00 in0.0 mm
04:50 PM 78.7°F25.9°C 64.1°F17.8°C 61% 4.6 mph N7.4 kmh N 6.9 mph11.1 kmh 30.05 in1017.6 mb - 0.00 in0.0 mm 0.00 in0.0 mm
05:00 PM 78.6°F25.9°C 64.9°F18.3°C 63% 1.2 mph ENE1.9 kmh ENE 3.5 mph5.6 kmh 30.06 in1017.9 mb - 0.00 in0.0 mm 0.00 in0.0 mm
05:10 PM 78.1°F25.6°C 64.0°F17.8°C 62% 3.5 mph NNW5.6 kmh NNW 4.6 mph7.4 kmh 30.05 in1017.6 mb - 0.00 in0.0 mm 0.00 in0.0 mm
05:20 PM 77.9°F25.5°C 63.8°F17.7°C 62% 3.5 mph N5.6 kmh N 8.1 mph13.0 kmh 30.05 in1017.6 mb - 0.00 in0.0 mm 0.00 in0.0 mm
05:30 PM 78.2°F25.7°C 63.2°F17.3°C 60% 5.8 mph NNW9.3 kmh NNW 8.1 mph13.0 kmh 30.05 in1017.6 mb - 0.00 in0.0 mm 0.00 in0.0 mm
05:40 PM 77.9°F25.5°C 63.8°F17.7°C 62% 2.3 mph NE3.7 kmh NE 9.2 mph14.8 kmh 30.05 in1017.6 mb - 0.00 in0.0 mm 0.00 in0.0 mm
05:50 PM 78.2°F25.7°C 64.1°F17.8°C 62% 2.3 mph NW3.7 kmh NW 6.9 mph11.1 kmh 30.05 in1017.6 mb - 0.00 in0.0 mm 0.00 in0.0 mm
06:00 PM 78.1°F25.6°C 62.6°F17.0°C 59% 3.5 mph NW5.6 kmh NW 3.5 mph5.6 kmh 30.05 in1017.6 mb - 0.00 in0.0 mm 0.00 in0.0 mm
06:10 PM 78.0°F25.6°C 63.0°F17.2°C 60% 1.2 mph NW1.9 kmh NW 3.5 mph5.6 kmh 30.05 in1017.6 mb - 0.00 in0.0 mm 0.00 in0.0 mm
06:20 PM 77.9°F25.5°C 61.9°F16.6°C 58% 2.3 mph NNE3.7 kmh NNE 5.8 mph9.3 kmh 30.05 in1017.6 mb - 0.00 in0.0 mm 0.00 in0.0 mm
06:30 PM 77.7°F25.4°C 62.3°F16.8°C 59% 2.3 mph N3.7 kmh N 4.6 mph7.4 kmh 30.05 in1017.6 mb - 0.00 in0.0 mm 0.00 in0.0 mm
06:40 PM 77.2°F25.1°C 62.3°F16.8°C 60% 3.5 mph ENE5.6 kmh ENE 4.6 mph7.4 kmh 30.05 in1017.6 mb - 0.00 in0.0 mm 0.00 in0.0 mm
06:50 PM 76.9°F24.9°C 62.4°F16.9°C 61% 2.3 mph N3.7 kmh N 5.8 mph9.3 kmh 30.05 in1017.6 mb - 0.00 in0.0 mm 0.00 in0.0 mm
07:00 PM 76.5°F24.7°C 63.4°F17.4°C 64% 1.2 mph N1.9 kmh N 2.3 mph3.7 kmh 30.05 in1017.6 mb - 0.00 in0.0 mm 0.00 in0.0 mm
07:10 PM 76.2°F24.6°C 63.6°F17.6°C 65% Calm Calm 1.2 mph1.9 kmh 30.05 in1017.6 mb - 0.00 in0.0 mm 0.00 in0.0 mm
07:20 PM 75.9°F24.4°C 63.3°F17.4°C 65% 1.2 mph NNW1.9 kmh NNW 2.3 mph3.7 kmh 30.05 in1017.6 mb - 0.00 in0.0 mm 0.00 in0.0 mm
07:30 PM 75.3°F24.1°C 64.0°F17.8°C 68% 2.3 mph NNW3.7 kmh NNW 5.8 mph9.3 kmh 30.05 in1017.6 mb - 0.00 in0.0 mm 0.00 in0.0 mm
07:40 PM 74.4°F23.6°C 64.0°F17.8°C 70% 1.2 mph NNW1.9 kmh NNW 2.3 mph3.7 kmh 30.05 in1017.6 mb - 0.00 in0.0 mm 0.00 in0.0 mm
07:50 PM 73.7°F23.2°C 64.1°F17.8°C 72% Calm Calm 2.3 mph3.7 kmh 30.05 in1017.6 mb - 0.00 in0.0 mm 0.00 in0.0 mm
08:00 PM 73.0°F22.8°C 63.8°F17.7°C 73% Calm Calm 2.3 mph3.7 kmh 30.06 in1017.9 mb - 0.00 in0.0 mm 0.00 in0.0 mm
08:10 PM 72.3°F22.4°C 63.9°F17.7°C 75% Calm Calm -- 30.05 in1017.6 mb - 0.00 in0.0 mm 0.00 in0.0 mm
08:20 PM 71.7°F22.1°C 63.7°F17.6°C 76% 1.2 mph NNW1.9 kmh NNW 3.5 mph5.6 kmh 30.06 in1017.9 mb - 0.00 in0.0 mm 0.00 in0.0 mm
08:30 PM 71.3°F21.8°C 63.7°F17.6°C 77% Calm Calm -- 30.06 in1017.9 mb - 0.00 in0.0 mm 0.00 in0.0 mm
08:40 PM 71.1°F21.7°C 63.9°F17.7°C 78% Calm Calm -- 30.07 in1018.3 mb - 0.00 in0.0 mm 0.00 in0.0 mm
08:50 PM 70.7°F21.5°C 63.8°F17.7°C 79% Calm Calm -- 30.07 in1018.3 mb - 0.00 in0.0 mm 0.00 in0.0 mm
09:00 PM 70.2°F21.2°C 63.4°F17.4°C 79% Calm Calm -- 30.07 in1018.3 mb - 0.00 in0.0 mm 0.00 in0.0 mm
09:10 PM 69.7°F20.9°C 63.3°F17.4°C 80% Calm Calm -- 30.07 in1018.3 mb - 0.00 in0.0 mm 0.00 in0.0 mm
09:20 PM 69.0°F20.6°C 62.6°F17.0°C 80% Calm Calm -- 30.08 in1018.6 mb - 0.00 in0.0 mm 0.00 in0.0 mm
09:30 PM 68.5°F20.3°C 62.1°F16.7°C 80% Calm Calm -- 30.08 in1018.6 mb - 0.00 in0.0 mm 0.00 in0.0 mm
09:40 PM 68.0°F20.0°C 61.6°F16.4°C 80% Calm Calm -- 30.08 in1018.6 mb - 0.00 in0.0 mm 0.00 in0.0 mm
09:50 PM 67.7°F19.8°C 61.3°F16.3°C 80% Calm Calm -- 30.09 in1019.0 mb - 0.00 in0.0 mm 0.00 in0.0 mm
10:00 PM 67.5°F19.7°C 61.1°F16.2°C 80% Calm Calm -- 30.09 in1019.0 mb - 0.00 in0.0 mm 0.00 in0.0 mm
10:10 PM 67.0°F19.4°C 61.0°F16.1°C 81% Calm Calm -- 30.09 in1019.0 mb - 0.00 in0.0 mm 0.00 in0.0 mm
10:20 PM 66.5°F19.2°C 60.8°F16.0°C 82% Calm Calm -- 30.09 in1019.0 mb - 0.00 in0.0 mm 0.00 in0.0 mm
10:30 PM 65.9°F18.8°C 60.6°F15.9°C 83% Calm Calm -- 30.09 in1019.0 mb - 0.00 in0.0 mm 0.00 in0.0 mm
10:40 PM 65.2°F18.4°C 60.3°F15.7°C 84% Calm Calm -- 30.09 in1019.0 mb - 0.00 in0.0 mm 0.00 in0.0 mm
10:50 PM 64.7°F18.2°C 60.1°F15.6°C 85% Calm Calm -- 30.09 in1019.0 mb - 0.00 in0.0 mm 0.00 in0.0 mm
11:00 PM 64.3°F17.9°C 60.0°F15.6°C 86% Calm Calm -- 30.09 in1019.0 mb - 0.00 in0.0 mm 0.00 in0.0 mm
11:10 PM 63.9°F17.7°C 59.9°F15.5°C 87% Calm Calm -- 30.09 in1019.0 mb - 0.00 in0.0 mm 0.00 in0.0 mm
11:20 PM 63.5°F17.5°C 59.9°F15.5°C 88% Calm Calm -- 30.09 in1019.0 mb - 0.00 in0.0 mm 0.00 in0.0 mm
11:30 PM 63.1°F17.3°C 59.5°F15.3°C 88% Calm Calm -- 30.09 in1019.0 mb - 0.00 in0.0 mm 0.00 in0.0 mm
11:40 PM 62.8°F17.1°C 59.2°F15.1°C 88% Calm Calm -- 30.09 in1019.0 mb - 0.00 in0.0 mm 0.00 in0.0 mm
11:50 PM 62.6°F17.0°C 59.3°F15.2°C 89% Calm Calm -- 30.09 in1019.0 mb - 0.00 in0.0 mm 0.00 in0.0 mm